sensor_id;sensor_type;location;lat;lon;timestamp;temperature;humidity
29551;DHT22;16488;52.396;10.696;2022-10-31T00:02:05;11.80;99.90
29551;DHT22;16488;52.396;10.696;2022-10-31T00:04:31;11.90;99.90
29551;DHT22;16488;52.396;10.696;2022-10-31T00:06:56;11.80;99.90
29551;DHT22;16488;52.396;10.696;2022-10-31T00:09:22;11.70;99.90
29551;DHT22;16488;52.396;10.696;2022-10-31T00:11:47;11.70;99.90
29551;DHT22;16488;52.396;10.696;2022-10-31T00:14:13;11.80;99.90
29551;DHT22;16488;52.396;10.696;2022-10-31T00:16:39;11.70;99.90
29551;DHT22;16488;52.396;10.696;2022-10-31T00:19:07;11.70;99.90
29551;DHT22;16488;52.396;10.696;2022-10-31T00:21:33;11.60;99.90
29551;DHT22;16488;52.396;10.696;2022-10-31T00:24:00;11.60;99.90
29551;DHT22;16488;52.396;10.696;2022-10-31T00:26:29;11.50;99.90
29551;DHT22;16488;52.396;10.696;2022-10-31T00:28:55;11.50;99.90
29551;DHT22;16488;52.396;10.696;2022-10-31T00:31:21;11.40;99.90
29551;DHT22;16488;52.396;10.696;2022-10-31T00:33:47;11.30;99.90
29551;DHT22;16488;52.396;10.696;2022-10-31T00:36:17;11.30;99.90
29551;DHT22;16488;52.396;10.696;2022-10-31T00:38:43;11.20;99.90
29551;DHT22;16488;52.396;10.696;2022-10-31T00:41:10;11.20;99.90
29551;DHT22;16488;52.396;10.696;2022-10-31T00:43:35;11.20;99.90
29551;DHT22;16488;52.396;10.696;2022-10-31T00:46:01;11.10;99.90
29551;DHT22;16488;52.396;10.696;2022-10-31T00:48:26;11.10;99.90
29551;DHT22;16488;52.396;10.696;2022-10-31T00:51:00;11.10;99.90
29551;DHT22;16488;52.396;10.696;2022-10-31T00:53:26;11.10;99.90
29551;DHT22;16488;52.396;10.696;2022-10-31T00:55:51;11.00;99.90
29551;DHT22;16488;52.396;10.696;2022-10-31T00:58:17;11.00;99.90
29551;DHT22;16488;52.396;10.696;2022-10-31T01:00:42;10.90;99.90
29551;DHT22;16488;52.396;10.696;2022-10-31T01:03:08;10.90;99.90
29551;DHT22;16488;52.396;10.696;2022-10-31T01:05:34;10.90;99.90
29551;DHT22;16488;52.396;10.696;2022-10-31T01:07:59;10.90;99.90
29551;DHT22;16488;52.396;10.696;2022-10-31T01:10:25;11.00;99.90
29551;DHT22;16488;52.396;10.696;2022-10-31T01:12:50;11.00;99.90
29551;DHT22;16488;52.396;10.696;2022-10-31T01:15:20;11.00;99.90
29551;DHT22;16488;52.396;10.696;2022-10-31T01:17:47;11.00;99.90
29551;DHT22;16488;52.396;10.696;2022-10-31T01:20:14;11.00;99.90
29551;DHT22;16488;52.396;10.696;2022-10-31T01:22:47;11.00;99.90
29551;DHT22;16488;52.396;10.696;2022-10-31T01:25:13;11.10;99.90
29551;DHT22;16488;52.396;10.696;2022-10-31T01:27:39;10.90;99.90
29551;DHT22;16488;52.396;10.696;2022-10-31T01:30:05;10.80;99.90
29551;DHT22;16488;52.396;10.696;2022-10-31T01:32:31;10.80;99.90
29551;DHT22;16488;52.396;10.696;2022-10-31T01:34:56;10.80;99.90
29551;DHT22;16488;52.396;10.696;2022-10-31T01:37:22;10.80;99.90
29551;DHT22;16488;52.396;10.696;2022-10-31T01:39:48;10.80;99.90
29551;DHT22;16488;52.396;10.696;2022-10-31T01:42:19;10.80;99.90
29551;DHT22;16488;52.396;10.696;2022-10-31T01:44:53;10.90;99.90
29551;DHT22;16488;52.396;10.696;2022-10-31T01:47:24;10.90;99.90
29551;DHT22;16488;52.396;10.696;2022-10-31T01:49:56;10.90;99.90
29551;DHT22;16488;52.396;10.696;2022-10-31T01:52:25;10.80;99.90
29551;DHT22;16488;52.396;10.696;2022-10-31T01:57:33;10.70;99.90
29551;DHT22;16488;52.396;10.696;2022-10-31T02:00:06;10.80;99.90
29551;DHT22;16488;52.396;10.696;2022-10-31T02:02:32;10.70;99.90
29551;DHT22;16488;52.396;10.696;2022-10-31T02:05:01;10.70;99.90
29551;DHT22;16488;52.396;10.696;2022-10-31T02:10:25;10.60;99.90
29551;DHT22;16488;52.396;10.696;2022-10-31T02:13:05;10.70;99.90
29551;DHT22;16488;52.396;10.696;2022-10-31T02:15:32;10.70;99.90
29551;DHT22;16488;52.396;10.696;2022-10-31T02:17:58;10.80;99.90
29551;DHT22;16488;52.396;10.696;2022-10-31T02:20:25;10.80;99.90
29551;DHT22;16488;52.396;10.696;2022-10-31T02:26:07;11.00;99.90
29551;DHT22;16488;52.396;10.696;2022-10-31T02:31:30;11.20;99.90
29551;DHT22;16488;52.396;10.696;2022-10-31T02:34:13;11.50;99.90
29551;DHT22;16488;52.396;10.696;2022-10-31T02:40:02;12.10;99.90
29551;DHT22;16488;52.396;10.696;2022-10-31T02:42:33;12.30;99.90
29551;DHT22;16488;52.396;10.696;2022-10-31T02:45:07;12.50;99.90
29551;DHT22;16488;52.396;10.696;2022-10-31T02:47:37;12.70;99.90
29551;DHT22;16488;52.396;10.696;2022-10-31T02:50:08;12.80;99.90
29551;DHT22;16488;52.396;10.696;2022-10-31T02:52:36;12.80;99.90
29551;DHT22;16488;52.396;10.696;2022-10-31T02:55:41;13.00;99.90
29551;DHT22;16488;52.396;10.696;2022-10-31T02:58:11;13.00;99.90
29551;DHT22;16488;52.396;10.696;2022-10-31T03:06:41;13.40;99.90
29551;DHT22;16488;52.396;10.696;2022-10-31T03:18:08;13.70;99.90
29551;DHT22;16488;52.396;10.696;2022-10-31T03:24:08;13.80;99.90
29551;DHT22;16488;52.396;10.696;2022-10-31T03:26:37;13.90;99.90
29551;DHT22;16488;52.396;10.696;2022-10-31T03:29:06;13.90;99.90
29551;DHT22;16488;52.396;10.696;2022-10-31T03:31:37;14.00;99.90
29551;DHT22;16488;52.396;10.696;2022-10-31T03:34:06;14.00;99.90
29551;DHT22;16488;52.396;10.696;2022-10-31T03:36:34;14.10;99.90
29551;DHT22;16488;52.396;10.696;2022-10-31T03:39:04;14.10;99.90
29551;DHT22;16488;52.396;10.696;2022-10-31T03:41:35;14.10;99.90
29551;DHT22;16488;52.396;10.696;2022-10-31T03:44:07;14.10;99.90
29551;DHT22;16488;52.396;10.696;2022-10-31T03:46:34;14.20;99.90
29551;DHT22;16488;52.396;10.696;2022-10-31T03:49:00;14.20;99.90
29551;DHT22;16488;52.396;10.696;2022-10-31T03:51:30;14.30;99.90
29551;DHT22;16488;52.396;10.696;2022-10-31T03:54:02;14.30;99.90
29551;DHT22;16488;52.396;10.696;2022-10-31T03:56:43;14.30;99.90
29551;DHT22;16488;52.396;10.696;2022-10-31T03:59:32;14.20;99.90
29551;DHT22;16488;52.396;10.696;2022-10-31T04:02:02;14.20;99.90
29551;DHT22;16488;52.396;10.696;2022-10-31T04:04:29;14.10;99.90
29551;DHT22;16488;52.396;10.696;2022-10-31T04:06:56;14.10;99.90
29551;DHT22;16488;52.396;10.696;2022-10-31T04:09:26;14.10;99.90
29551;DHT22;16488;52.396;10.696;2022-10-31T04:11:54;14.00;99.90
29551;DHT22;16488;52.396;10.696;2022-10-31T04:14:24;14.00;99.90
29551;DHT22;16488;52.396;10.696;2022-10-31T04:16:50;14.00;99.90
29551;DHT22;16488;52.396;10.696;2022-10-31T04:19:16;14.00;99.90
29551;DHT22;16488;52.396;10.696;2022-10-31T04:21:42;14.00;99.90
29551;DHT22;16488;52.396;10.696;2022-10-31T04:24:09;14.00;99.90
29551;DHT22;16488;52.396;10.696;2022-10-31T04:26:34;13.90;99.90
29551;DHT22;16488;52.396;10.696;2022-10-31T04:29:00;13.90;99.90
29551;DHT22;16488;52.396;10.696;2022-10-31T04:31:26;14.00;99.90
29551;DHT22;16488;52.396;10.696;2022-10-31T04:33:52;14.00;99.90
29551;DHT22;16488;52.396;10.696;2022-10-31T04:36:17;13.90;99.90
29551;DHT22;16488;52.396;10.696;2022-10-31T04:38:43;14.00;99.90
29551;DHT22;16488;52.396;10.696;2022-10-31T04:41:08;14.00;99.90
29551;DHT22;16488;52.396;10.696;2022-10-31T04:43:34;14.00;99.90
29551;DHT22;16488;52.396;10.696;2022-10-31T04:46:00;14.00;99.90
29551;DHT22;16488;52.396;10.696;2022-10-31T04:48:25;14.00;99.90
29551;DHT22;16488;52.396;10.696;2022-10-31T04:50:51;14.10;99.90
29551;DHT22;16488;52.396;10.696;2022-10-31T04:53:17;14.10;99.90
29551;DHT22;16488;52.396;10.696;2022-10-31T04:55:42;14.10;99.90
29551;DHT22;16488;52.396;10.696;2022-10-31T04:58:08;14.10;99.90
29551;DHT22;16488;52.396;10.696;2022-10-31T05:00:33;14.10;99.90
29551;DHT22;16488;52.396;10.696;2022-10-31T05:02:59;14.10;99.90
29551;DHT22;16488;52.396;10.696;2022-10-31T05:05:27;14.10;99.90
29551;DHT22;16488;52.396;10.696;2022-10-31T05:07:53;14.10;99.90
29551;DHT22;16488;52.396;10.696;2022-10-31T05:10:25;14.10;99.90
29551;DHT22;16488;52.396;10.696;2022-10-31T05:12:54;14.10;99.90
29551;DHT22;16488;52.396;10.696;2022-10-31T05:15:22;14.10;99.90
29551;DHT22;16488;52.396;10.696;2022-10-31T05:17:48;14.00;99.90
29551;DHT22;16488;52.396;10.696;2022-10-31T05:20:14;14.00;99.90
29551;DHT22;16488;52.396;10.696;2022-10-31T05:22:48;14.10;99.90
29551;DHT22;16488;52.396;10.696;2022-10-31T05:25:15;14.10;99.90
29551;DHT22;16488;52.396;10.696;2022-10-31T05:27:42;14.10;99.90
29551;DHT22;16488;52.396;10.696;2022-10-31T05:30:09;14.10;99.90
29551;DHT22;16488;52.396;10.696;2022-10-31T05:32:46;14.20;99.90
29551;DHT22;16488;52.396;10.696;2022-10-31T05:35:17;14.20;99.90
29551;DHT22;16488;52.396;10.696;2022-10-31T05:37:43;14.20;99.90
29551;DHT22;16488;52.396;10.696;2022-10-31T05:40:11;14.20;99.90
29551;DHT22;16488;52.396;10.696;2022-10-31T05:42:38;14.20;99.90
29551;DHT22;16488;52.396;10.696;2022-10-31T05:45:05;14.20;99.90
29551;DHT22;16488;52.396;10.696;2022-10-31T05:47:31;14.10;99.90
29551;DHT22;16488;52.396;10.696;2022-10-31T05:49:57;14.10;99.90
29551;DHT22;16488;52.396;10.696;2022-10-31T05:52:22;14.10;99.90
29551;DHT22;16488;52.396;10.696;2022-10-31T05:54:48;14.10;99.90
29551;DHT22;16488;52.396;10.696;2022-10-31T05:57:13;14.10;99.90
29551;DHT22;16488;52.396;10.696;2022-10-31T05:59:39;14.10;99.90
29551;DHT22;16488;52.396;10.696;2022-10-31T06:02:05;14.10;99.90
29551;DHT22;16488;52.396;10.696;2022-10-31T06:04:30;14.10;99.90
29551;DHT22;16488;52.396;10.696;2022-10-31T06:06:56;14.00;99.90
29551;DHT22;16488;52.396;10.696;2022-10-31T06:09:22;14.00;99.90
29551;DHT22;16488;52.396;10.696;2022-10-31T06:11:47;14.00;99.90
29551;DHT22;16488;52.396;10.696;2022-10-31T06:14:13;14.00;99.90
29551;DHT22;16488;52.396;10.696;2022-10-31T06:16:38;13.90;99.90
29551;DHT22;16488;52.396;10.696;2022-10-31T06:19:04;13.90;99.90
29551;DHT22;16488;52.396;10.696;2022-10-31T06:21:29;13.80;99.90
29551;DHT22;16488;52.396;10.696;2022-10-31T06:23:55;13.80;99.90
29551;DHT22;16488;52.396;10.696;2022-10-31T06:26:20;13.70;99.90
29551;DHT22;16488;52.396;10.696;2022-10-31T06:28:46;13.70;99.90
29551;DHT22;16488;52.396;10.696;2022-10-31T06:31:11;13.80;99.90
29551;DHT22;16488;52.396;10.696;2022-10-31T06:33:37;13.90;99.90
29551;DHT22;16488;52.396;10.696;2022-10-31T06:36:03;13.80;99.90
29551;DHT22;16488;52.396;10.696;2022-10-31T06:38:28;13.90;99.90
29551;DHT22;16488;52.396;10.696;2022-10-31T06:40:54;13.80;99.90
29551;DHT22;16488;52.396;10.696;2022-10-31T06:43:23;13.80;99.90
29551;DHT22;16488;52.396;10.696;2022-10-31T06:45:48;13.80;99.90
29551;DHT22;16488;52.396;10.696;2022-10-31T06:48:14;13.80;99.90
29551;DHT22;16488;52.396;10.696;2022-10-31T06:50:39;13.80;99.90
29551;DHT22;16488;52.396;10.696;2022-10-31T06:53:05;13.80;99.90
29551;DHT22;16488;52.396;10.696;2022-10-31T06:55:31;13.90;99.90
29551;DHT22;16488;52.396;10.696;2022-10-31T06:57:58;14.00;99.90
29551;DHT22;16488;52.396;10.696;2022-10-31T07:00:26;14.00;99.90
29551;DHT22;16488;52.396;10.696;2022-10-31T07:02:59;14.00;99.90
29551;DHT22;16488;52.396;10.696;2022-10-31T07:05:26;14.10;99.90
29551;DHT22;16488;52.396;10.696;2022-10-31T07:07:53;14.10;99.90
29551;DHT22;16488;52.396;10.696;2022-10-31T07:10:19;14.10;99.90
29551;DHT22;16488;52.396;10.696;2022-10-31T07:12:44;14.20;99.90
29551;DHT22;16488;52.396;10.696;2022-10-31T07:15:10;14.20;99.90
29551;DHT22;16488;52.396;10.696;2022-10-31T07:17:36;14.20;99.90
29551;DHT22;16488;52.396;10.696;2022-10-31T07:20:01;14.20;99.90
29551;DHT22;16488;52.396;10.696;2022-10-31T07:22:35;14.20;99.90
29551;DHT22;16488;52.396;10.696;2022-10-31T07:25:00;14.30;99.90
29551;DHT22;16488;52.396;10.696;2022-10-31T07:27:26;14.20;99.90
29551;DHT22;16488;52.396;10.696;2022-10-31T07:29:51;14.20;99.90
29551;DHT22;16488;52.396;10.696;2022-10-31T07:32:17;14.20;99.90
29551;DHT22;16488;52.396;10.696;2022-10-31T07:34:43;14.20;99.90
29551;DHT22;16488;52.396;10.696;2022-10-31T07:37:08;14.20;99.90
29551;DHT22;16488;52.396;10.696;2022-10-31T07:39:34;14.10;99.90
29551;DHT22;16488;52.396;10.696;2022-10-31T07:41:59;14.10;99.90
29551;DHT22;16488;52.396;10.696;2022-10-31T07:44:25;14.10;99.90
29551;DHT22;16488;52.396;10.696;2022-10-31T07:46:50;14.10;99.90
29551;DHT22;16488;52.396;10.696;2022-10-31T07:49:16;14.10;99.90
29551;DHT22;16488;52.396;10.696;2022-10-31T07:51:41;14.10;99.90
29551;DHT22;16488;52.396;10.696;2022-10-31T07:54:07;14.00;99.90
29551;DHT22;16488;52.396;10.696;2022-10-31T07:56:32;14.00;99.90
29551;DHT22;16488;52.396;10.696;2022-10-31T07:58:58;14.10;99.90
29551;DHT22;16488;52.396;10.696;2022-10-31T08:01:24;14.20;99.90
29551;DHT22;16488;52.396;10.696;2022-10-31T08:03:49;14.10;99.90
29551;DHT22;16488;52.396;10.696;2022-10-31T08:06:15;14.00;99.90
29551;DHT22;16488;52.396;10.696;2022-10-31T08:08:40;14.10;99.90
29551;DHT22;16488;52.396;10.696;2022-10-31T08:11:06;14.10;99.90
29551;DHT22;16488;52.396;10.696;2022-10-31T08:13:31;14.20;99.90
29551;DHT22;16488;52.396;10.696;2022-10-31T08:15:57;14.20;99.90
29551;DHT22;16488;52.396;10.696;2022-10-31T08:18:28;14.20;99.90
29551;DHT22;16488;52.396;10.696;2022-10-31T08:20:54;14.30;99.90
29551;DHT22;16488;52.396;10.696;2022-10-31T08:23:20;14.30;99.90
29551;DHT22;16488;52.396;10.696;2022-10-31T08:25:46;14.30;99.90
29551;DHT22;16488;52.396;10.696;2022-10-31T08:28:14;14.30;99.90
29551;DHT22;16488;52.396;10.696;2022-10-31T08:30:41;14.30;99.90
29551;DHT22;16488;52.396;10.696;2022-10-31T08:33:10;14.30;99.90
29551;DHT22;16488;52.396;10.696;2022-10-31T08:35:37;14.20;99.90
29551;DHT22;16488;52.396;10.696;2022-10-31T08:38:03;14.10;99.90
29551;DHT22;16488;52.396;10.696;2022-10-31T08:40:30;14.00;99.90
29551;DHT22;16488;52.396;10.696;2022-10-31T08:43:02;14.00;99.90
29551;DHT22;16488;52.396;10.696;2022-10-31T08:45:29;13.90;99.90
29551;DHT22;16488;52.396;10.696;2022-10-31T08:47:59;14.00;99.90
29551;DHT22;16488;52.396;10.696;2022-10-31T08:50:26;13.90;99.90
29551;DHT22;16488;52.396;10.696;2022-10-31T08:52:52;14.00;99.90
29551;DHT22;16488;52.396;10.696;2022-10-31T08:55:18;14.00;99.90
29551;DHT22;16488;52.396;10.696;2022-10-31T08:57:44;14.00;99.90
29551;DHT22;16488;52.396;10.696;2022-10-31T09:00:09;14.00;99.90
29551;DHT22;16488;52.396;10.696;2022-10-31T09:02:35;14.00;99.90
29551;DHT22;16488;52.396;10.696;2022-10-31T09:05:02;14.10;99.90
29551;DHT22;16488;52.396;10.696;2022-10-31T09:07:28;14.10;99.90
29551;DHT22;16488;52.396;10.696;2022-10-31T09:09:53;14.10;99.90
29551;DHT22;16488;52.396;10.696;2022-10-31T09:12:20;14.10;99.90
29551;DHT22;16488;52.396;10.696;2022-10-31T09:14:46;14.10;99.90
29551;DHT22;16488;52.396;10.696;2022-10-31T09:17:12;14.20;99.90
29551;DHT22;16488;52.396;10.696;2022-10-31T09:19:37;14.30;99.90
29551;DHT22;16488;52.396;10.696;2022-10-31T09:22:03;14.30;99.90
29551;DHT22;16488;52.396;10.696;2022-10-31T09:24:28;14.40;99.90
29551;DHT22;16488;52.396;10.696;2022-10-31T09:26:54;14.30;99.90
29551;DHT22;16488;52.396;10.696;2022-10-31T09:29:19;14.40;99.90
29551;DHT22;16488;52.396;10.696;2022-10-31T09:31:45;14.50;99.90
29551;DHT22;16488;52.396;10.696;2022-10-31T09:34:10;14.50;99.90
29551;DHT22;16488;52.396;10.696;2022-10-31T09:36:37;14.60;99.90
29551;DHT22;16488;52.396;10.696;2022-10-31T09:39:03;14.70;99.90
29551;DHT22;16488;52.396;10.696;2022-10-31T09:44:27;14.60;99.90
29551;DHT22;16488;52.396;10.696;2022-10-31T09:50:18;14.50;99.90
29551;DHT22;16488;52.396;10.696;2022-10-31T09:53:08;14.60;99.90
29551;DHT22;16488;52.396;10.696;2022-10-31T09:55:44;14.80;99.90
29551;DHT22;16488;52.396;10.696;2022-10-31T09:58:18;15.00;99.90
29551;DHT22;16488;52.396;10.696;2022-10-31T10:00:46;15.40;99.90
29551;DHT22;16488;52.396;10.696;2022-10-31T10:03:33;16.10;99.90
29551;DHT22;16488;52.396;10.696;2022-10-31T10:06:23;16.60;99.90
29551;DHT22;16488;52.396;10.696;2022-10-31T10:08:49;16.80;99.90
29551;DHT22;16488;52.396;10.696;2022-10-31T10:22:50;16.50;99.90
29551;DHT22;16488;52.396;10.696;2022-10-31T10:25:24;16.30;99.90
29551;DHT22;16488;52.396;10.696;2022-10-31T10:36:06;16.70;99.90
29551;DHT22;16488;52.396;10.696;2022-10-31T10:38:49;16.80;99.90
29551;DHT22;16488;52.396;10.696;2022-10-31T10:41:19;16.80;99.90
29551;DHT22;16488;52.396;10.696;2022-10-31T10:43:45;16.80;99.90
29551;DHT22;16488;52.396;10.696;2022-10-31T10:51:54;16.90;99.90
29551;DHT22;16488;52.396;10.696;2022-10-31T10:54:45;17.00;99.90
29551;DHT22;16488;52.396;10.696;2022-10-31T10:59:52;17.00;99.90
29551;DHT22;16488;52.396;10.696;2022-10-31T11:02:20;16.80;99.90
29551;DHT22;16488;52.396;10.696;2022-10-31T11:04:53;17.00;99.90
29551;DHT22;16488;52.396;10.696;2022-10-31T11:07:19;17.00;99.90
29551;DHT22;16488;52.396;10.696;2022-10-31T11:09:45;17.10;99.90
29551;DHT22;16488;52.396;10.696;2022-10-31T11:12:28;17.30;99.90
29551;DHT22;16488;52.396;10.696;2022-10-31T11:14:58;17.60;99.90
29551;DHT22;16488;52.396;10.696;2022-10-31T11:17:36;17.80;99.90
29551;DHT22;16488;52.396;10.696;2022-10-31T11:22:36;17.60;99.90
29551;DHT22;16488;52.396;10.696;2022-10-31T11:25:21;17.60;99.90
29551;DHT22;16488;52.396;10.696;2022-10-31T11:27:47;17.70;99.90
29551;DHT22;16488;52.396;10.696;2022-10-31T11:30:13;17.70;99.90
29551;DHT22;16488;52.396;10.696;2022-10-31T11:32:49;17.70;99.90
29551;DHT22;16488;52.396;10.696;2022-10-31T11:35:21;17.60;99.90
29551;DHT22;16488;52.396;10.696;2022-10-31T11:37:49;17.60;99.90
29551;DHT22;16488;52.396;10.696;2022-10-31T11:40:21;17.60;99.90
29551;DHT22;16488;52.396;10.696;2022-10-31T11:42:47;17.70;99.90
29551;DHT22;16488;52.396;10.696;2022-10-31T11:45:27;17.70;99.90
29551;DHT22;16488;52.396;10.696;2022-10-31T11:47:54;17.80;99.90
29551;DHT22;16488;52.396;10.696;2022-10-31T11:50:24;17.90;99.90
29551;DHT22;16488;52.396;10.696;2022-10-31T11:52:51;17.80;99.90
29551;DHT22;16488;52.396;10.696;2022-10-31T11:55:36;18.00;99.90
29551;DHT22;16488;52.396;10.696;2022-10-31T11:58:02;18.00;99.90
29551;DHT22;16488;52.396;10.696;2022-10-31T12:00:35;17.90;99.90
29551;DHT22;16488;52.396;10.696;2022-10-31T12:03:33;18.10;99.90
29551;DHT22;16488;52.396;10.696;2022-10-31T12:08:34;18.40;99.90
29551;DHT22;16488;52.396;10.696;2022-10-31T12:11:08;18.50;99.90
29551;DHT22;16488;52.396;10.696;2022-10-31T12:13:58;18.40;99.90
29551;DHT22;16488;52.396;10.696;2022-10-31T12:19:44;18.60;99.90
29551;DHT22;16488;52.396;10.696;2022-10-31T12:36:21;19.70;99.90
29551;DHT22;16488;52.396;10.696;2022-10-31T12:39:11;19.80;99.90
29551;DHT22;16488;52.396;10.696;2022-10-31T12:44:17;19.90;99.90
29551;DHT22;16488;52.396;10.696;2022-10-31T12:50:21;19.90;99.90
29551;DHT22;16488;52.396;10.696;2022-10-31T12:52:57;19.80;99.90
29551;DHT22;16488;52.396;10.696;2022-10-31T12:56:03;20.00;99.90
29551;DHT22;16488;52.396;10.696;2022-10-31T12:58:38;19.80;99.90
29551;DHT22;16488;52.396;10.696;2022-10-31T13:01:12;19.50;99.90
29551;DHT22;16488;52.396;10.696;2022-10-31T13:06:44;19.00;99.90
29551;DHT22;16488;52.396;10.696;2022-10-31T13:09:17;18.70;99.90
29551;DHT22;16488;52.396;10.696;2022-10-31T13:12:07;18.50;99.90
29551;DHT22;16488;52.396;10.696;2022-10-31T13:14:41;18.30;99.90
29551;DHT22;16488;52.396;10.696;2022-10-31T13:17:14;18.10;99.90
29551;DHT22;16488;52.396;10.696;2022-10-31T13:19:45;18.10;99.90
29551;DHT22;16488;52.396;10.696;2022-10-31T13:22:18;17.90;99.90
29551;DHT22;16488;52.396;10.696;2022-10-31T13:27:37;17.70;99.90
29551;DHT22;16488;52.396;10.696;2022-10-31T13:30:19;17.50;99.90
29551;DHT22;16488;52.396;10.696;2022-10-31T13:35:40;17.60;99.90
29551;DHT22;16488;52.396;10.696;2022-10-31T13:38:23;17.70;99.90
29551;DHT22;16488;52.396;10.696;2022-10-31T13:41:04;17.80;99.90
29551;DHT22;16488;52.396;10.696;2022-10-31T13:46:35;18.10;99.90
29551;DHT22;16488;52.396;10.696;2022-10-31T13:49:02;18.20;99.90
29551;DHT22;16488;52.396;10.696;2022-10-31T13:51:31;18.00;99.90
29551;DHT22;16488;52.396;10.696;2022-10-31T13:53:59;18.00;99.90
29551;DHT22;16488;52.396;10.696;2022-10-31T13:56:31;18.00;99.90
29551;DHT22;16488;52.396;10.696;2022-10-31T13:59:23;18.00;99.90
29551;DHT22;16488;52.396;10.696;2022-10-31T14:02:13;18.00;99.90
29551;DHT22;16488;52.396;10.696;2022-10-31T14:04:51;18.10;99.90
29551;DHT22;16488;52.396;10.696;2022-10-31T14:07:23;18.10;99.90
29551;DHT22;16488;52.396;10.696;2022-10-31T14:10:04;18.30;99.90
29551;DHT22;16488;52.396;10.696;2022-10-31T14:12:33;18.30;99.90
29551;DHT22;16488;52.396;10.696;2022-10-31T14:15:18;18.40;99.90
29551;DHT22;16488;52.396;10.696;2022-10-31T14:17:51;18.40;99.90
29551;DHT22;16488;52.396;10.696;2022-10-31T14:22:43;18.30;99.90
29551;DHT22;16488;52.396;10.696;2022-10-31T14:25:25;18.20;99.90
29551;DHT22;16488;52.396;10.696;2022-10-31T14:27:51;18.00;99.90
29551;DHT22;16488;52.396;10.696;2022-10-31T14:30:19;17.90;99.90
29551;DHT22;16488;52.396;10.696;2022-10-31T14:32:55;17.80;99.90
29551;DHT22;16488;52.396;10.696;2022-10-31T14:35:26;17.60;99.90
29551;DHT22;16488;52.396;10.696;2022-10-31T14:38:22;17.50;99.90
29551;DHT22;16488;52.396;10.696;2022-10-31T14:43:49;17.30;99.90
29551;DHT22;16488;52.396;10.696;2022-10-31T14:51:56;17.00;99.90
29551;DHT22;16488;52.396;10.696;2022-10-31T14:54:28;16.80;99.90
29551;DHT22;16488;52.396;10.696;2022-10-31T14:57:01;16.80;99.90
29551;DHT22;16488;52.396;10.696;2022-10-31T14:59:31;16.70;99.90
29551;DHT22;16488;52.396;10.696;2022-10-31T15:05:07;16.50;99.90
29551;DHT22;16488;52.396;10.696;2022-10-31T15:07:33;16.30;99.90
29551;DHT22;16488;52.396;10.696;2022-10-31T15:10:04;16.30;99.90
29551;DHT22;16488;52.396;10.696;2022-10-31T15:12:33;16.30;99.90
29551;DHT22;16488;52.396;10.696;2022-10-31T15:15:14;16.20;99.90
29551;DHT22;16488;52.396;10.696;2022-10-31T15:17:45;16.20;99.90
29551;DHT22;16488;52.396;10.696;2022-10-31T15:20:12;16.10;99.90
29551;DHT22;16488;52.396;10.696;2022-10-31T15:22:42;16.10;99.90
29551;DHT22;16488;52.396;10.696;2022-10-31T15:25:17;16.00;99.90
29551;DHT22;16488;52.396;10.696;2022-10-31T15:27:43;15.90;99.90
29551;DHT22;16488;52.396;10.696;2022-10-31T15:30:29;16.00;99.90
29551;DHT22;16488;52.396;10.696;2022-10-31T15:32:54;15.90;99.90
29551;DHT22;16488;52.396;10.696;2022-10-31T15:35:25;15.80;99.90
29551;DHT22;16488;52.396;10.696;2022-10-31T15:37:52;15.80;99.90
29551;DHT22;16488;52.396;10.696;2022-10-31T15:40:20;15.80;99.90
29551;DHT22;16488;52.396;10.696;2022-10-31T15:45:22;15.70;99.90
29551;DHT22;16488;52.396;10.696;2022-10-31T15:48:13;15.60;99.90
29551;DHT22;16488;52.396;10.696;2022-10-31T15:50:50;15.60;99.90
29551;DHT22;16488;52.396;10.696;2022-10-31T15:53:22;15.50;99.90
29551;DHT22;16488;52.396;10.696;2022-10-31T15:56:01;15.50;99.90
29551;DHT22;16488;52.396;10.696;2022-10-31T15:58:28;15.50;99.90
29551;DHT22;16488;52.396;10.696;2022-10-31T16:01:03;15.50;99.90
29551;DHT22;16488;52.396;10.696;2022-10-31T16:03:31;15.40;99.90
29551;DHT22;16488;52.396;10.696;2022-10-31T16:06:02;15.40;99.90
29551;DHT22;16488;52.396;10.696;2022-10-31T16:13:37;15.40;99.90
29551;DHT22;16488;52.396;10.696;2022-10-31T16:16:14;15.30;99.90
29551;DHT22;16488;52.396;10.696;2022-10-31T16:18:40;15.30;99.90
29551;DHT22;16488;52.396;10.696;2022-10-31T16:21:06;15.20;99.90
29551;DHT22;16488;52.396;10.696;2022-10-31T16:23:33;15.20;99.90
29551;DHT22;16488;52.396;10.696;2022-10-31T16:25:59;15.10;99.90
29551;DHT22;16488;52.396;10.696;2022-10-31T16:28:26;15.10;99.90
29551;DHT22;16488;52.396;10.696;2022-10-31T16:30:56;15.10;99.90
29551;DHT22;16488;52.396;10.696;2022-10-31T16:33:31;15.10;99.90
29551;DHT22;16488;52.396;10.696;2022-10-31T16:38:52;15.10;99.90
29551;DHT22;16488;52.396;10.696;2022-10-31T16:41:18;15.10;99.90
29551;DHT22;16488;52.396;10.696;2022-10-31T16:43:44;15.10;99.90
29551;DHT22;16488;52.396;10.696;2022-10-31T16:46:14;15.20;99.90
29551;DHT22;16488;52.396;10.696;2022-10-31T16:48:40;15.20;99.90
29551;DHT22;16488;52.396;10.696;2022-10-31T16:51:07;15.20;99.90
29551;DHT22;16488;52.396;10.696;2022-10-31T16:53:34;15.10;99.90
29551;DHT22;16488;52.396;10.696;2022-10-31T16:56:02;15.10;99.90
29551;DHT22;16488;52.396;10.696;2022-10-31T16:58:34;15.10;99.90
29551;DHT22;16488;52.396;10.696;2022-10-31T17:01:00;15.10;99.90
29551;DHT22;16488;52.396;10.696;2022-10-31T17:03:26;15.10;99.90
29551;DHT22;16488;52.396;10.696;2022-10-31T17:05:52;15.10;99.90
29551;DHT22;16488;52.396;10.696;2022-10-31T17:08:20;15.10;99.90
29551;DHT22;16488;52.396;10.696;2022-10-31T17:10:47;15.10;99.90
29551;DHT22;16488;52.396;10.696;2022-10-31T17:13:21;15.10;99.90
29551;DHT22;16488;52.396;10.696;2022-10-31T17:15:50;15.10;99.90
29551;DHT22;16488;52.396;10.696;2022-10-31T17:18:17;15.10;99.90
29551;DHT22;16488;52.396;10.696;2022-10-31T17:20:43;15.00;99.90
29551;DHT22;16488;52.396;10.696;2022-10-31T17:23:11;15.00;99.90
29551;DHT22;16488;52.396;10.696;2022-10-31T17:25:37;15.00;99.90
29551;DHT22;16488;52.396;10.696;2022-10-31T17:28:03;15.00;99.90
29551;DHT22;16488;52.396;10.696;2022-10-31T17:30:30;14.90;99.90
29551;DHT22;16488;52.396;10.696;2022-10-31T17:32:55;14.90;99.90
29551;DHT22;16488;52.396;10.696;2022-10-31T17:35:21;14.90;99.90
29551;DHT22;16488;52.396;10.696;2022-10-31T17:37:48;14.90;99.90
29551;DHT22;16488;52.396;10.696;2022-10-31T17:40:17;14.90;99.90
29551;DHT22;16488;52.396;10.696;2022-10-31T17:42:51;14.90;99.90